sensor_id;sensor_type;location;lat;lon;timestamp;temperature;humidity
8892;DHT22;4482;54.332;10.118;2023-12-22T00:01:53;6.00;99.90
8892;DHT22;4482;54.332;10.118;2023-12-22T00:04:21;5.90;99.90
8892;DHT22;4482;54.332;10.118;2023-12-22T00:06:48;5.90;99.90
8892;DHT22;4482;54.332;10.118;2023-12-22T00:09:17;5.90;99.90
8892;DHT22;4482;54.332;10.118;2023-12-22T00:11:44;5.90;99.90
8892;DHT22;4482;54.332;10.118;2023-12-22T00:14:11;5.80;99.90
8892;DHT22;4482;54.332;10.118;2023-12-22T00:16:37;5.80;99.90
8892;DHT22;4482;54.332;10.118;2023-12-22T00:19:04;5.80;99.90
8892;DHT22;4482;54.332;10.118;2023-12-22T00:21:32;5.80;99.90
8892;DHT22;4482;54.332;10.118;2023-12-22T00:23:59;5.80;99.90
8892;DHT22;4482;54.332;10.118;2023-12-22T00:26:26;5.70;99.90
8892;DHT22;4482;54.332;10.118;2023-12-22T00:28:52;5.70;99.90
8892;DHT22;4482;54.332;10.118;2023-12-22T00:31:19;5.70;99.90
8892;DHT22;4482;54.332;10.118;2023-12-22T00:33:46;5.60;99.90
8892;DHT22;4482;54.332;10.118;2023-12-22T00:36:12;5.70;99.90
8892;DHT22;4482;54.332;10.118;2023-12-22T00:38:40;5.70;99.90
8892;DHT22;4482;54.332;10.118;2023-12-22T00:41:07;5.60;99.90
8892;DHT22;4482;54.332;10.118;2023-12-22T00:43:34;5.60;99.90
8892;DHT22;4482;54.332;10.118;2023-12-22T00:46:00;5.60;99.90
8892;DHT22;4482;54.332;10.118;2023-12-22T00:48:27;5.50;99.90
8892;DHT22;4482;54.332;10.118;2023-12-22T00:50:54;5.50;99.90
8892;DHT22;4482;54.332;10.118;2023-12-22T00:53:21;5.50;99.90
8892;DHT22;4482;54.332;10.118;2023-12-22T00:55:49;5.50;99.90
8892;DHT22;4482;54.332;10.118;2023-12-22T00:58:15;5.50;99.90
8892;DHT22;4482;54.332;10.118;2023-12-22T01:00:42;5.50;99.90
8892;DHT22;4482;54.332;10.118;2023-12-22T01:03:09;5.50;99.90
8892;DHT22;4482;54.332;10.118;2023-12-22T01:05:37;5.50;99.90
8892;DHT22;4482;54.332;10.118;2023-12-22T01:08:04;5.50;99.90
8892;DHT22;4482;54.332;10.118;2023-12-22T01:10:31;5.50;99.90
8892;DHT22;4482;54.332;10.118;2023-12-22T01:12:59;5.50;99.90
8892;DHT22;4482;54.332;10.118;2023-12-22T01:15:25;5.60;99.90
8892;DHT22;4482;54.332;10.118;2023-12-22T01:17:52;5.60;99.90
8892;DHT22;4482;54.332;10.118;2023-12-22T01:20:19;5.60;99.90
8892;DHT22;4482;54.332;10.118;2023-12-22T01:22:46;5.60;99.90
8892;DHT22;4482;54.332;10.118;2023-12-22T01:25:12;5.60;99.90
8892;DHT22;4482;54.332;10.118;2023-12-22T01:27:39;5.60;99.90
8892;DHT22;4482;54.332;10.118;2023-12-22T01:30:08;5.50;99.90
8892;DHT22;4482;54.332;10.118;2023-12-22T01:32:35;5.60;99.90
8892;DHT22;4482;54.332;10.118;2023-12-22T01:35:02;5.50;99.90
8892;DHT22;4482;54.332;10.118;2023-12-22T01:37:34;5.50;99.90
8892;DHT22;4482;54.332;10.118;2023-12-22T01:40:01;5.50;99.90
8892;DHT22;4482;54.332;10.118;2023-12-22T01:42:28;5.60;99.90
8892;DHT22;4482;54.332;10.118;2023-12-22T01:44:54;5.60;99.90
8892;DHT22;4482;54.332;10.118;2023-12-22T01:47:22;5.50;99.90
8892;DHT22;4482;54.332;10.118;2023-12-22T01:49:50;5.50;99.90
8892;DHT22;4482;54.332;10.118;2023-12-22T01:52:17;5.50;99.90
8892;DHT22;4482;54.332;10.118;2023-12-22T01:54:44;5.40;99.90
8892;DHT22;4482;54.332;10.118;2023-12-22T01:57:11;5.40;99.90
8892;DHT22;4482;54.332;10.118;2023-12-22T01:59:39;5.40;99.90
8892;DHT22;4482;54.332;10.118;2023-12-22T02:02:06;5.40;99.90
8892;DHT22;4482;54.332;10.118;2023-12-22T02:04:34;5.40;99.90
8892;DHT22;4482;54.332;10.118;2023-12-22T02:07:01;5.50;99.90
8892;DHT22;4482;54.332;10.118;2023-12-22T02:09:28;5.50;99.90
8892;DHT22;4482;54.332;10.118;2023-12-22T02:11:56;5.40;99.90
8892;DHT22;4482;54.332;10.118;2023-12-22T02:14:22;5.50;99.90
8892;DHT22;4482;54.332;10.118;2023-12-22T02:16:50;5.50;99.90
8892;DHT22;4482;54.332;10.118;2023-12-22T02:19:21;5.50;99.90
8892;DHT22;4482;54.332;10.118;2023-12-22T02:22:02;5.60;99.90
8892;DHT22;4482;54.332;10.118;2023-12-22T02:24:30;5.60;99.90
8892;DHT22;4482;54.332;10.118;2023-12-22T02:26:58;5.50;99.90
8892;DHT22;4482;54.332;10.118;2023-12-22T02:29:28;5.50;99.90
8892;DHT22;4482;54.332;10.118;2023-12-22T02:31:56;5.30;99.90
8892;DHT22;4482;54.332;10.118;2023-12-22T02:34:25;5.00;99.90
8892;DHT22;4482;54.332;10.118;2023-12-22T02:36:52;4.70;99.90
8892;DHT22;4482;54.332;10.118;2023-12-22T02:39:19;4.50;99.90
8892;DHT22;4482;54.332;10.118;2023-12-22T02:41:48;4.30;99.90
8892;DHT22;4482;54.332;10.118;2023-12-22T02:44:15;4.20;99.90
8892;DHT22;4482;54.332;10.118;2023-12-22T02:46:41;4.10;99.90
8892;DHT22;4482;54.332;10.118;2023-12-22T02:49:09;4.00;99.90
8892;DHT22;4482;54.332;10.118;2023-12-22T02:51:35;3.80;99.90
8892;DHT22;4482;54.332;10.118;2023-12-22T02:54:02;3.80;99.90
8892;DHT22;4482;54.332;10.118;2023-12-22T02:56:29;3.80;99.90
8892;DHT22;4482;54.332;10.118;2023-12-22T02:58:57;3.80;99.90
8892;DHT22;4482;54.332;10.118;2023-12-22T03:01:24;3.70;99.90
8892;DHT22;4482;54.332;10.118;2023-12-22T03:03:50;3.70;99.90
8892;DHT22;4482;54.332;10.118;2023-12-22T03:06:17;3.60;99.90
8892;DHT22;4482;54.332;10.118;2023-12-22T03:08:44;3.60;99.90
8892;DHT22;4482;54.332;10.118;2023-12-22T03:11:10;3.60;99.90
8892;DHT22;4482;54.332;10.118;2023-12-22T03:13:37;3.50;99.90
8892;DHT22;4482;54.332;10.118;2023-12-22T03:16:09;3.40;99.90
8892;DHT22;4482;54.332;10.118;2023-12-22T03:18:37;3.30;99.90
8892;DHT22;4482;54.332;10.118;2023-12-22T03:21:04;3.30;99.90
8892;DHT22;4482;54.332;10.118;2023-12-22T03:23:30;3.30;99.90
8892;DHT22;4482;54.332;10.118;2023-12-22T03:25:57;3.30;99.90
8892;DHT22;4482;54.332;10.118;2023-12-22T03:28:24;3.40;99.90
8892;DHT22;4482;54.332;10.118;2023-12-22T03:30:51;3.30;99.90
8892;DHT22;4482;54.332;10.118;2023-12-22T03:33:19;3.40;99.90
8892;DHT22;4482;54.332;10.118;2023-12-22T03:35:45;3.50;99.90
8892;DHT22;4482;54.332;10.118;2023-12-22T03:38:12;3.50;99.90
8892;DHT22;4482;54.332;10.118;2023-12-22T03:40:39;3.60;99.90
8892;DHT22;4482;54.332;10.118;2023-12-22T03:43:06;3.60;99.90
8892;DHT22;4482;54.332;10.118;2023-12-22T03:45:32;3.60;99.90
8892;DHT22;4482;54.332;10.118;2023-12-22T03:47:59;3.70;99.90
8892;DHT22;4482;54.332;10.118;2023-12-22T03:50:27;3.70;99.90
8892;DHT22;4482;54.332;10.118;2023-12-22T03:52:54;3.80;99.90
8892;DHT22;4482;54.332;10.118;2023-12-22T03:55:20;3.80;99.90
8892;DHT22;4482;54.332;10.118;2023-12-22T03:57:47;3.80;99.90
8892;DHT22;4482;54.332;10.118;2023-12-22T04:00:14;3.80;99.90
8892;DHT22;4482;54.332;10.118;2023-12-22T04:02:41;3.90;99.90
8892;DHT22;4482;54.332;10.118;2023-12-22T04:05:10;3.90;99.90
8892;DHT22;4482;54.332;10.118;2023-12-22T04:07:38;4.00;99.90
8892;DHT22;4482;54.332;10.118;2023-12-22T04:10:06;4.00;99.90
8892;DHT22;4482;54.332;10.118;2023-12-22T04:12:32;3.90;99.90
8892;DHT22;4482;54.332;10.118;2023-12-22T04:14:59;3.90;99.90
8892;DHT22;4482;54.332;10.118;2023-12-22T04:17:26;3.80;99.90
8892;DHT22;4482;54.332;10.118;2023-12-22T04:19:52;3.70;99.90
8892;DHT22;4482;54.332;10.118;2023-12-22T04:22:19;3.70;99.90
8892;DHT22;4482;54.332;10.118;2023-12-22T04:24:47;3.70;99.90
8892;DHT22;4482;54.332;10.118;2023-12-22T04:27:14;3.70;99.90
8892;DHT22;4482;54.332;10.118;2023-12-22T04:29:41;3.70;99.90
8892;DHT22;4482;54.332;10.118;2023-12-22T04:32:07;3.80;99.90
8892;DHT22;4482;54.332;10.118;2023-12-22T04:34:34;3.90;99.90
8892;DHT22;4482;54.332;10.118;2023-12-22T04:37:01;3.90;99.90
8892;DHT22;4482;54.332;10.118;2023-12-22T04:39:27;4.00;99.90
8892;DHT22;4482;54.332;10.118;2023-12-22T04:41:55;4.00;99.90
8892;DHT22;4482;54.332;10.118;2023-12-22T04:44:22;4.00;99.90
8892;DHT22;4482;54.332;10.118;2023-12-22T04:46:49;4.00;99.90
8892;DHT22;4482;54.332;10.118;2023-12-22T04:49:18;3.90;99.90
8892;DHT22;4482;54.332;10.118;2023-12-22T04:51:47;3.90;99.90
8892;DHT22;4482;54.332;10.118;2023-12-22T04:54:14;3.90;99.90
8892;DHT22;4482;54.332;10.118;2023-12-22T04:56:40;3.80;99.90
8892;DHT22;4482;54.332;10.118;2023-12-22T04:59:08;3.80;99.90
8892;DHT22;4482;54.332;10.118;2023-12-22T05:01:35;3.70;99.90
8892;DHT22;4482;54.332;10.118;2023-12-22T05:04:02;3.70;99.90
8892;DHT22;4482;54.332;10.118;2023-12-22T05:06:29;3.80;99.90
8892;DHT22;4482;54.332;10.118;2023-12-22T05:08:55;3.80;99.90
8892;DHT22;4482;54.332;10.118;2023-12-22T05:11:22;3.90;99.90
8892;DHT22;4482;54.332;10.118;2023-12-22T05:13:49;3.90;99.90
8892;DHT22;4482;54.332;10.118;2023-12-22T05:16:17;3.90;99.90
8892;DHT22;4482;54.332;10.118;2023-12-22T05:18:44;3.90;99.90
8892;DHT22;4482;54.332;10.118;2023-12-22T05:21:11;4.00;99.90
8892;DHT22;4482;54.332;10.118;2023-12-22T05:23:38;4.00;99.90
8892;DHT22;4482;54.332;10.118;2023-12-22T05:26:05;4.00;99.90
8892;DHT22;4482;54.332;10.118;2023-12-22T05:28:31;4.00;99.90
8892;DHT22;4482;54.332;10.118;2023-12-22T05:30:58;4.00;99.90
8892;DHT22;4482;54.332;10.118;2023-12-22T05:33:26;4.00;99.90
8892;DHT22;4482;54.332;10.118;2023-12-22T05:35:53;4.00;99.90
8892;DHT22;4482;54.332;10.118;2023-12-22T05:38:20;4.10;99.90
8892;DHT22;4482;54.332;10.118;2023-12-22T05:40:46;4.00;99.90
8892;DHT22;4482;54.332;10.118;2023-12-22T05:43:13;4.10;99.90
8892;DHT22;4482;54.332;10.118;2023-12-22T05:45:40;4.10;99.90
8892;DHT22;4482;54.332;10.118;2023-12-22T05:48:07;4.20;99.90
8892;DHT22;4482;54.332;10.118;2023-12-22T05:50:35;4.20;99.90
8892;DHT22;4482;54.332;10.118;2023-12-22T05:53:01;4.20;99.90
8892;DHT22;4482;54.332;10.118;2023-12-22T05:55:28;4.20;99.90
8892;DHT22;4482;54.332;10.118;2023-12-22T05:58:01;4.30;99.90
8892;DHT22;4482;54.332;10.118;2023-12-22T06:00:29;4.30;99.90
8892;DHT22;4482;54.332;10.118;2023-12-22T06:02:57;4.30;99.90
8892;DHT22;4482;54.332;10.118;2023-12-22T06:05:24;4.40;99.90
8892;DHT22;4482;54.332;10.118;2023-12-22T06:07:52;4.40;99.90
8892;DHT22;4482;54.332;10.118;2023-12-22T06:10:18;4.50;99.90
8892;DHT22;4482;54.332;10.118;2023-12-22T06:12:45;4.40;99.90
8892;DHT22;4482;54.332;10.118;2023-12-22T06:15:12;4.50;99.90
8892;DHT22;4482;54.332;10.118;2023-12-22T06:17:39;4.50;99.90
8892;DHT22;4482;54.332;10.118;2023-12-22T06:20:06;4.50;99.90
8892;DHT22;4482;54.332;10.118;2023-12-22T06:22:33;4.40;99.90
8892;DHT22;4482;54.332;10.118;2023-12-22T06:25:01;4.40;99.90
8892;DHT22;4482;54.332;10.118;2023-12-22T06:27:32;4.50;99.90
8892;DHT22;4482;54.332;10.118;2023-12-22T06:29:59;4.40;99.90
8892;DHT22;4482;54.332;10.118;2023-12-22T06:32:26;4.40;99.90
8892;DHT22;4482;54.332;10.118;2023-12-22T06:34:52;4.40;99.90
8892;DHT22;4482;54.332;10.118;2023-12-22T06:37:19;4.40;99.90
8892;DHT22;4482;54.332;10.118;2023-12-22T06:39:46;4.40;99.90
8892;DHT22;4482;54.332;10.118;2023-12-22T06:42:14;4.40;99.90
8892;DHT22;4482;54.332;10.118;2023-12-22T06:44:41;4.40;99.90
8892;DHT22;4482;54.332;10.118;2023-12-22T06:47:08;4.40;99.90
8892;DHT22;4482;54.332;10.118;2023-12-22T06:49:34;4.40;99.90
8892;DHT22;4482;54.332;10.118;2023-12-22T06:52:01;4.30;99.90
8892;DHT22;4482;54.332;10.118;2023-12-22T06:54:28;4.30;99.90
8892;DHT22;4482;54.332;10.118;2023-12-22T06:56:55;4.30;99.90
8892;DHT22;4482;54.332;10.118;2023-12-22T06:59:23;4.20;99.90
8892;DHT22;4482;54.332;10.118;2023-12-22T07:01:50;4.10;99.90
8892;DHT22;4482;54.332;10.118;2023-12-22T07:04:16;4.00;99.90
8892;DHT22;4482;54.332;10.118;2023-12-22T07:06:43;4.00;99.90
8892;DHT22;4482;54.332;10.118;2023-12-22T07:09:31;4.00;99.90
8892;DHT22;4482;54.332;10.118;2023-12-22T07:11:58;4.00;99.90
8892;DHT22;4482;54.332;10.118;2023-12-22T07:14:26;4.00;99.90
8892;DHT22;4482;54.332;10.118;2023-12-22T07:16:53;4.00;99.90
8892;DHT22;4482;54.332;10.118;2023-12-22T07:19:19;4.00;99.90
8892;DHT22;4482;54.332;10.118;2023-12-22T07:21:46;4.00;99.90
8892;DHT22;4482;54.332;10.118;2023-12-22T07:24:13;4.00;99.90
8892;DHT22;4482;54.332;10.118;2023-12-22T07:26:41;4.00;99.90
8892;DHT22;4482;54.332;10.118;2023-12-22T07:29:09;4.00;99.90
8892;DHT22;4482;54.332;10.118;2023-12-22T07:31:37;4.00;99.90
8892;DHT22;4482;54.332;10.118;2023-12-22T07:34:04;4.10;99.90
8892;DHT22;4482;54.332;10.118;2023-12-22T07:36:31;4.10;99.90
8892;DHT22;4482;54.332;10.118;2023-12-22T07:38:57;3.80;99.90
8892;DHT22;4482;54.332;10.118;2023-12-22T07:41:26;3.60;99.90
8892;DHT22;4482;54.332;10.118;2023-12-22T07:43:52;3.40;99.90
8892;DHT22;4482;54.332;10.118;2023-12-22T07:46:19;3.40;99.90
8892;DHT22;4482;54.332;10.118;2023-12-22T07:48:48;3.30;99.90
8892;DHT22;4482;54.332;10.118;2023-12-22T07:51:15;3.20;99.90
8892;DHT22;4482;54.332;10.118;2023-12-22T07:53:42;3.10;99.90
8892;DHT22;4482;54.332;10.118;2023-12-22T07:56:09;3.00;99.90
8892;DHT22;4482;54.332;10.118;2023-12-22T07:58:37;3.00;99.90
8892;DHT22;4482;54.332;10.118;2023-12-22T08:01:04;3.00;99.90
8892;DHT22;4482;54.332;10.118;2023-12-22T08:03:31;3.10;99.90
8892;DHT22;4482;54.332;10.118;2023-12-22T08:05:59;3.20;99.90
8892;DHT22;4482;54.332;10.118;2023-12-22T08:08:26;3.30;99.90
8892;DHT22;4482;54.332;10.118;2023-12-22T08:10:53;3.40;99.90
8892;DHT22;4482;54.332;10.118;2023-12-22T08:13:19;3.50;99.90
8892;DHT22;4482;54.332;10.118;2023-12-22T08:15:46;3.50;99.90
8892;DHT22;4482;54.332;10.118;2023-12-22T08:18:13;3.60;99.90
8892;DHT22;4482;54.332;10.118;2023-12-22T08:20:39;3.60;99.90
8892;DHT22;4482;54.332;10.118;2023-12-22T08:23:08;3.70;99.90
8892;DHT22;4482;54.332;10.118;2023-12-22T08:25:34;3.80;99.90
8892;DHT22;4482;54.332;10.118;2023-12-22T08:28:01;3.80;99.90
8892;DHT22;4482;54.332;10.118;2023-12-22T08:30:28;3.90;99.90
8892;DHT22;4482;54.332;10.118;2023-12-22T08:32:54;3.90;99.90
8892;DHT22;4482;54.332;10.118;2023-12-22T08:35:21;3.90;99.90
8892;DHT22;4482;54.332;10.118;2023-12-22T08:37:49;3.90;99.90
8892;DHT22;4482;54.332;10.118;2023-12-22T08:40:17;4.00;99.90
8892;DHT22;4482;54.332;10.118;2023-12-22T08:42:49;4.00;99.90
8892;DHT22;4482;54.332;10.118;2023-12-22T08:45:16;4.10;99.90
8892;DHT22;4482;54.332;10.118;2023-12-22T08:47:42;4.00;99.90
8892;DHT22;4482;54.332;10.118;2023-12-22T08:50:09;4.10;99.90
8892;DHT22;4482;54.332;10.118;2023-12-22T08:52:38;4.10;99.90
8892;DHT22;4482;54.332;10.118;2023-12-22T08:55:06;4.10;99.90
8892;DHT22;4482;54.332;10.118;2023-12-22T08:57:34;4.10;99.90
8892;DHT22;4482;54.332;10.118;2023-12-22T09:00:01;4.10;99.90
8892;DHT22;4482;54.332;10.118;2023-12-22T09:02:29;4.10;99.90
8892;DHT22;4482;54.332;10.118;2023-12-22T09:04:56;4.10;99.90
8892;DHT22;4482;54.332;10.118;2023-12-22T09:07:22;4.20;99.90
8892;DHT22;4482;54.332;10.118;2023-12-22T09:09:50;4.20;99.90
8892;DHT22;4482;54.332;10.118;2023-12-22T09:12:16;4.20;99.90
8892;DHT22;4482;54.332;10.118;2023-12-22T09:14:44;4.30;99.90
8892;DHT22;4482;54.332;10.118;2023-12-22T09:17:11;4.30;99.90
8892;DHT22;4482;54.332;10.118;2023-12-22T09:19:38;4.30;99.90
8892;DHT22;4482;54.332;10.118;2023-12-22T09:22:05;4.30;99.90
8892;DHT22;4482;54.332;10.118;2023-12-22T09:24:32;4.30;99.90
8892;DHT22;4482;54.332;10.118;2023-12-22T09:26:59;4.30;99.90
8892;DHT22;4482;54.332;10.118;2023-12-22T09:29:28;4.40;99.90
8892;DHT22;4482;54.332;10.118;2023-12-22T09:32:05;4.40;99.90
8892;DHT22;4482;54.332;10.118;2023-12-22T09:34:32;4.50;99.90
8892;DHT22;4482;54.332;10.118;2023-12-22T09:36:59;4.50;99.90
8892;DHT22;4482;54.332;10.118;2023-12-22T09:39:25;4.60;99.90
8892;DHT22;4482;54.332;10.118;2023-12-22T09:41:54;4.60;99.90
8892;DHT22;4482;54.332;10.118;2023-12-22T09:44:21;4.60;99.90
8892;DHT22;4482;54.332;10.118;2023-12-22T09:46:48;4.70;99.90
8892;DHT22;4482;54.332;10.118;2023-12-22T09:49:16;4.80;99.90
8892;DHT22;4482;54.332;10.118;2023-12-22T09:51:44;4.80;99.90
8892;DHT22;4482;54.332;10.118;2023-12-22T09:54:11;4.80;99.90
8892;DHT22;4482;54.332;10.118;2023-12-22T09:56:38;4.70;99.90
8892;DHT22;4482;54.332;10.118;2023-12-22T09:59:08;4.70;99.90
8892;DHT22;4482;54.332;10.118;2023-12-22T10:01:40;4.60;99.90
8892;DHT22;4482;54.332;10.118;2023-12-22T10:04:09;4.60;99.90
8892;DHT22;4482;54.332;10.118;2023-12-22T10:06:37;4.60;99.90
8892;DHT22;4482;54.332;10.118;2023-12-22T10:09:04;4.60;99.90
8892;DHT22;4482;54.332;10.118;2023-12-22T10:11:32;4.60;99.90
8892;DHT22;4482;54.332;10.118;2023-12-22T10:14:00;4.60;99.90
8892;DHT22;4482;54.332;10.118;2023-12-22T10:16:28;4.60;99.90
8892;DHT22;4482;54.332;10.118;2023-12-22T10:19:03;4.60;99.90
8892;DHT22;4482;54.332;10.118;2023-12-22T10:21:30;4.70;99.90
8892;DHT22;4482;54.332;10.118;2023-12-22T10:23:58;4.60;99.90
8892;DHT22;4482;54.332;10.118;2023-12-22T10:26:25;4.60;99.90
8892;DHT22;4482;54.332;10.118;2023-12-22T10:28:51;4.60;99.90
8892;DHT22;4482;54.332;10.118;2023-12-22T10:31:18;4.60;99.90
8892;DHT22;4482;54.332;10.118;2023-12-22T10:33:44;4.60;99.90
8892;DHT22;4482;54.332;10.118;2023-12-22T10:36:11;4.60;99.90
8892;DHT22;4482;54.332;10.118;2023-12-22T10:38:38;4.50;99.90
8892;DHT22;4482;54.332;10.118;2023-12-22T10:41:06;4.50;99.90
8892;DHT22;4482;54.332;10.118;2023-12-22T10:43:36;4.50;99.90
8892;DHT22;4482;54.332;10.118;2023-12-22T10:46:04;4.50;99.90
8892;DHT22;4482;54.332;10.118;2023-12-22T10:48:31;4.50;99.90
8892;DHT22;4482;54.332;10.118;2023-12-22T10:50:58;4.50;99.90
8892;DHT22;4482;54.332;10.118;2023-12-22T10:53:24;4.40;99.90
8892;DHT22;4482;54.332;10.118;2023-12-22T10:55:54;4.40;99.90
8892;DHT22;4482;54.332;10.118;2023-12-22T10:58:22;4.40;99.90
8892;DHT22;4482;54.332;10.118;2023-12-22T11:00:49;4.40;99.90
8892;DHT22;4482;54.332;10.118;2023-12-22T11:03:19;4.40;99.90
8892;DHT22;4482;54.332;10.118;2023-12-22T11:05:50;4.40;99.90
8892;DHT22;4482;54.332;10.118;2023-12-22T11:08:17;4.40;99.90
8892;DHT22;4482;54.332;10.118;2023-12-22T11:10:45;4.40;99.90
8892;DHT22;4482;54.332;10.118;2023-12-22T11:13:15;4.50;99.90
8892;DHT22;4482;54.332;10.118;2023-12-22T11:15:44;4.50;99.90
8892;DHT22;4482;54.332;10.118;2023-12-22T11:18:13;4.50;99.90
8892;DHT22;4482;54.332;10.118;2023-12-22T11:20:51;4.50;99.90
8892;DHT22;4482;54.332;10.118;2023-12-22T11:23:18;4.50;99.90
8892;DHT22;4482;54.332;10.118;2023-12-22T11:25:44;4.50;99.90
8892;DHT22;4482;54.332;10.118;2023-12-22T11:28:12;4.50;99.90
8892;DHT22;4482;54.332;10.118;2023-12-22T11:30:40;4.50;99.90
8892;DHT22;4482;54.332;10.118;2023-12-22T11:33:08;4.60;99.90
8892;DHT22;4482;54.332;10.118;2023-12-22T11:35:36;4.60;99.90
8892;DHT22;4482;54.332;10.118;2023-12-22T11:38:03;4.60;99.90
8892;DHT22;4482;54.332;10.118;2023-12-22T11:40:31;4.60;99.90
8892;DHT22;4482;54.332;10.118;2023-12-22T11:42:58;4.70;99.90
8892;DHT22;4482;54.332;10.118;2023-12-22T11:45:26;4.60;99.90
8892;DHT22;4482;54.332;10.118;2023-12-22T11:47:56;4.60;99.90
8892;DHT22;4482;54.332;10.118;2023-12-22T11:50:29;4.70;99.90
8892;DHT22;4482;54.332;10.118;2023-12-22T11:52:56;4.70;99.90
8892;DHT22;4482;54.332;10.118;2023-12-22T12:00:47;4.70;99.90
8892;DHT22;4482;54.332;10.118;2023-12-22T12:03:19;4.70;99.90
8892;DHT22;4482;54.332;10.118;2023-12-22T12:05:47;4.70;99.90
8892;DHT22;4482;54.332;10.118;2023-12-22T12:08:14;4.70;99.90
8892;DHT22;4482;54.332;10.118;2023-12-22T12:10:51;4.70;99.90
8892;DHT22;4482;54.332;10.118;2023-12-22T12:13:22;4.80;99.90
8892;DHT22;4482;54.332;10.118;2023-12-22T12:15:48;5.10;99.90
8892;DHT22;4482;54.332;10.118;2023-12-22T12:18:17;5.50;99.90
8892;DHT22;4482;54.332;10.118;2023-12-22T12:20:49;5.70;99.90
8892;DHT22;4482;54.332;10.118;2023-12-22T12:23:16;5.90;99.90
8892;DHT22;4482;54.332;10.118;2023-12-22T12:25:43;5.90;99.90
8892;DHT22;4482;54.332;10.118;2023-12-22T12:28:09;5.80;99.90
8892;DHT22;4482;54.332;10.118;2023-12-22T12:30:37;5.50;99.90
8892;DHT22;4482;54.332;10.118;2023-12-22T12:33:05;5.30;99.90
8892;DHT22;4482;54.332;10.118;2023-12-22T12:35:32;5.10;99.90
8892;DHT22;4482;54.332;10.118;2023-12-22T12:38:00;4.90;99.90
8892;DHT22;4482;54.332;10.118;2023-12-22T12:40:27;4.90;99.90
8892;DHT22;4482;54.332;10.118;2023-12-22T12:42:57;4.90;99.90
8892;DHT22;4482;54.332;10.118;2023-12-22T12:45:25;4.90;99.90
8892;DHT22;4482;54.332;10.118;2023-12-22T12:47:55;5.00;99.90
8892;DHT22;4482;54.332;10.118;2023-12-22T12:50:22;5.00;99.90
8892;DHT22;4482;54.332;10.118;2023-12-22T12:52:49;5.00;99.90
8892;DHT22;4482;54.332;10.118;2023-12-22T12:55:18;5.00;99.90
8892;DHT22;4482;54.332;10.118;2023-12-22T12:57:46;4.80;99.90
8892;DHT22;4482;54.332;10.118;2023-12-22T13:00:14;4.70;99.90
8892;DHT22;4482;54.332;10.118;2023-12-22T13:02:41;4.60;99.90
8892;DHT22;4482;54.332;10.118;2023-12-22T13:05:08;4.40;99.90
8892;DHT22;4482;54.332;10.118;2023-12-22T13:07:36;4.40;99.90
8892;DHT22;4482;54.332;10.118;2023-12-22T13:10:03;4.40;99.90
8892;DHT22;4482;54.332;10.118;2023-12-22T13:12:33;4.30;99.90
8892;DHT22;4482;54.332;10.118;2023-12-22T13:15:01;4.30;99.90
8892;DHT22;4482;54.332;10.118;2023-12-22T13:17:28;4.30;99.90
8892;DHT22;4482;54.332;10.118;2023-12-22T13:19:55;4.30;99.90
8892;DHT22;4482;54.332;10.118;2023-12-22T13:22:22;4.30;99.90
8892;DHT22;4482;54.332;10.118;2023-12-22T13:24:55;4.40;99.90
8892;DHT22;4482;54.332;10.118;2023-12-22T13:27:23;4.50;99.90
8892;DHT22;4482;54.332;10.118;2023-12-22T13:29:51;4.50;99.90
8892;DHT22;4482;54.332;10.118;2023-12-22T13:32:19;4.50;99.90
8892;DHT22;4482;54.332;10.118;2023-12-22T13:34:47;4.60;99.90
8892;DHT22;4482;54.332;10.118;2023-12-22T13:37:14;4.60;99.90
8892;DHT22;4482;54.332;10.118;2023-12-22T13:39:41;4.60;99.90
8892;DHT22;4482;54.332;10.118;2023-12-22T13:42:13;4.50;99.90
8892;DHT22;4482;54.332;10.118;2023-12-22T13:44:42;4.40;99.90
8892;DHT22;4482;54.332;10.118;2023-12-22T13:47:10;4.30;99.90
8892;DHT22;4482;54.332;10.118;2023-12-22T13:49:37;4.30;99.90
8892;DHT22;4482;54.332;10.118;2023-12-22T13:52:04;4.20;99.90
8892;DHT22;4482;54.332;10.118;2023-12-22T13:54:33;4.20;99.90
8892;DHT22;4482;54.332;10.118;2023-12-22T13:57:00;4.20;99.90
8892;DHT22;4482;54.332;10.118;2023-12-22T13:59:30;4.20;99.90
8892;DHT22;4482;54.332;10.118;2023-12-22T14:01:57;4.20;99.90
8892;DHT22;4482;54.332;10.118;2023-12-22T14:04:25;4.20;99.90
8892;DHT22;4482;54.332;10.118;2023-12-22T14:06:51;4.10;99.90
8892;DHT22;4482;54.332;10.118;2023-12-22T14:09:18;4.10;99.90
8892;DHT22;4482;54.332;10.118;2023-12-22T14:11:49;4.10;99.90
8892;DHT22;4482;54.332;10.118;2023-12-22T14:14:16;4.10;99.90
8892;DHT22;4482;54.332;10.118;2023-12-22T14:16:44;4.10;99.90
8892;DHT22;4482;54.332;10.118;2023-12-22T14:19:11;4.20;99.90
8892;DHT22;4482;54.332;10.118;2023-12-22T14:21:39;4.20;99.90
8892;DHT22;4482;54.332;10.118;2023-12-22T14:24:06;4.20;99.90
8892;DHT22;4482;54.332;10.118;2023-12-22T14:26:33;4.20;99.90
8892;DHT22;4482;54.332;10.118;2023-12-22T14:28:59;4.20;99.90
8892;DHT22;4482;54.332;10.118;2023-12-22T14:31:26;4.20;99.90
8892;DHT22;4482;54.332;10.118;2023-12-22T14:33:53;4.20;99.90
8892;DHT22;4482;54.332;10.118;2023-12-22T14:36:23;4.20;99.90
8892;DHT22;4482;54.332;10.118;2023-12-22T14:38:51;4.30;99.90
8892;DHT22;4482;54.332;10.118;2023-12-22T14:41:18;4.30;99.90
8892;DHT22;4482;54.332;10.118;2023-12-22T14:43:44;4.30;99.90
8892;DHT22;4482;54.332;10.118;2023-12-22T14:46:12;4.30;99.90
8892;DHT22;4482;54.332;10.118;2023-12-22T14:48:38;4.20;99.90
8892;DHT22;4482;54.332;10.118;2023-12-22T14:51:05;4.20;99.90
8892;DHT22;4482;54.332;10.118;2023-12-22T14:53:33;4.10;99.90
8892;DHT22;4482;54.332;10.118;2023-12-22T14:56:02;4.10;99.90
8892;DHT22;4482;54.332;10.118;2023-12-22T14:58:29;4.00;99.90
8892;DHT22;4482;54.332;10.118;2023-12-22T15:00:56;4.00;99.90
8892;DHT22;4482;54.332;10.118;2023-12-22T15:03:22;4.00;99.90
8892;DHT22;4482;54.332;10.118;2023-12-22T15:05:49;3.90;99.90
8892;DHT22;4482;54.332;10.118;2023-12-22T15:08:16;3.90;99.90
8892;DHT22;4482;54.332;10.118;2023-12-22T15:10:42;3.90;99.90
8892;DHT22;4482;54.332;10.118;2023-12-22T15:13:10;3.90;99.90
8892;DHT22;4482;54.332;10.118;2023-12-22T15:15:37;3.90;99.90
8892;DHT22;4482;54.332;10.118;2023-12-22T15:18:04;3.90;99.90
8892;DHT22;4482;54.332;10.118;2023-12-22T15:20:31;3.90;99.90
8892;DHT22;4482;54.332;10.118;2023-12-22T15:22:58;3.90;99.90
8892;DHT22;4482;54.332;10.118;2023-12-22T15:25:25;3.90;99.90
8892;DHT22;4482;54.332;10.118;2023-12-22T15:27:52;3.90;99.90
8892;DHT22;4482;54.332;10.118;2023-12-22T15:30:20;3.90;99.90
8892;DHT22;4482;54.332;10.118;2023-12-22T15:32:47;4.00;99.90
8892;DHT22;4482;54.332;10.118;2023-12-22T15:35:16;4.00;99.90
8892;DHT22;4482;54.332;10.118;2023-12-22T15:37:43;3.90;99.90
8892;DHT22;4482;54.332;10.118;2023-12-22T15:40:11;3.90;99.90
8892;DHT22;4482;54.332;10.118;2023-12-22T15:42:38;3.90;99.90
8892;DHT22;4482;54.332;10.118;2023-12-22T15:45:05;3.90;99.90
8892;DHT22;4482;54.332;10.118;2023-12-22T15:47:34;3.90;99.90
8892;DHT22;4482;54.332;10.118;2023-12-22T15:50:00;3.90;99.90
8892;DHT22;4482;54.332;10.118;2023-12-22T15:52:28;4.00;99.90
8892;DHT22;4482;54.332;10.118;2023-12-22T15:54:55;4.10;99.90
8892;DHT22;4482;54.332;10.118;2023-12-22T15:57:22;4.10;99.90
8892;DHT22;4482;54.332;10.118;2023-12-22T15:59:48;4.00;99.90
8892;DHT22;4482;54.332;10.118;2023-12-22T16:02:15;4.00;99.90
8892;DHT22;4482;54.332;10.118;2023-12-22T16:04:43;4.00;99.90
8892;DHT22;4482;54.332;10.118;2023-12-22T16:07:10;3.90;99.90
8892;DHT22;4482;54.332;10.118;2023-12-22T16:09:37;3.90;99.90